sensor_id;sensor_type;location;lat;lon;timestamp;pressure;altitude;pressure_sealevel;temperature;humidity
68476;BME280;55464;48.266;14.188;2023-11-22T00:02:19;97750.91;;;12.07;59.83
68476;BME280;55464;48.266;14.188;2023-11-22T00:04:45;97751.34;;;12.09;59.64
68476;BME280;55464;48.266;14.188;2023-11-22T00:07:11;97746.56;;;12.06;59.35
68476;BME280;55464;48.266;14.188;2023-11-22T00:09:36;97755.03;;;12.14;59.58
68476;BME280;55464;48.266;14.188;2023-11-22T00:12:02;97746.13;;;12.04;59.61
68476;BME280;55464;48.266;14.188;2023-11-22T00:14:27;97763.69;;;12.12;59.54
68476;BME280;55464;48.266;14.188;2023-11-22T00:16:53;97759.31;;;12.11;59.55
68476;BME280;55464;48.266;14.188;2023-11-22T00:19:18;97762.06;;;12.11;59.77
68476;BME280;55464;48.266;14.188;2023-11-22T00:21:47;97758.41;;;12.07;59.92
68476;BME280;55464;48.266;14.188;2023-11-22T00:24:12;97752.78;;;12.03;59.81
68476;BME280;55464;48.266;14.188;2023-11-22T00:26:38;97762.88;;;12.12;59.57
68476;BME280;55464;48.266;14.188;2023-11-22T00:29:03;97757.34;;;12.12;59.71
68476;BME280;55464;48.266;14.188;2023-11-22T00:31:29;97752.88;;;12.07;59.43
68476;BME280;55464;48.266;14.188;2023-11-22T00:33:55;97755.66;;;12.07;59.54
68476;BME280;55464;48.266;14.188;2023-11-22T00:36:20;97773.09;;;12.11;59.58
68476;BME280;55464;48.266;14.188;2023-11-22T00:38:46;97760.81;;;12.08;59.77
68476;BME280;55464;48.266;14.188;2023-11-22T00:41:11;97769.13;;;12.08;59.46
68476;BME280;55464;48.266;14.188;2023-11-22T00:43:37;97763.25;;;12.10;59.71
68476;BME280;55464;48.266;14.188;2023-11-22T00:46:02;97780.34;;;12.16;59.52
68476;BME280;55464;48.266;14.188;2023-11-22T00:48:28;97771.16;;;12.12;59.00
68476;BME280;55464;48.266;14.188;2023-11-22T00:50:53;97777.22;;;12.17;59.30
68476;BME280;55464;48.266;14.188;2023-11-22T00:53:18;97756.00;;;12.05;59.19
68476;BME280;55464;48.266;14.188;2023-11-22T00:55:44;97783.09;;;12.16;59.49
68476;BME280;55464;48.266;14.188;2023-11-22T00:58:09;97789.53;;;12.20;59.48
68476;BME280;55464;48.266;14.188;2023-11-22T01:00:35;97781.22;;;12.20;59.57
68476;BME280;55464;48.266;14.188;2023-11-22T01:03:00;97784.72;;;12.17;59.75
68476;BME280;55464;48.266;14.188;2023-11-22T01:05:25;97783.56;;;12.18;59.68
68476;BME280;55464;48.266;14.188;2023-11-22T01:07:51;97770.25;;;12.07;59.58
68476;BME280;55464;48.266;14.188;2023-11-22T01:10:16;97788.28;;;12.17;59.76
68476;BME280;55464;48.266;14.188;2023-11-22T01:12:42;97788.28;;;12.17;59.50
68476;BME280;55464;48.266;14.188;2023-11-22T01:15:08;97789.88;;;12.18;59.96
68476;BME280;55464;48.266;14.188;2023-11-22T01:17:34;97785.78;;;12.12;59.84
68476;BME280;55464;48.266;14.188;2023-11-22T01:20:00;97776.59;;;12.08;59.65
68476;BME280;55464;48.266;14.188;2023-11-22T01:22:26;97780.97;;;12.09;59.36
68476;BME280;55464;48.266;14.188;2023-11-22T01:24:52;97783.09;;;12.16;59.73
68476;BME280;55464;48.266;14.188;2023-11-22T01:27:18;97787.50;;;12.17;59.61
68476;BME280;55464;48.266;14.188;2023-11-22T01:29:43;97783.91;;;12.16;59.50
68476;BME280;55464;48.266;14.188;2023-11-22T01:32:09;97780.25;;;12.12;59.60
68476;BME280;55464;48.266;14.188;2023-11-22T01:34:34;97794.16;;;12.16;59.45
68476;BME280;55464;48.266;14.188;2023-11-22T01:37:00;97796.38;;;12.10;58.18
68476;BME280;55464;48.266;14.188;2023-11-22T01:39:25;97800.19;;;12.05;57.92
68476;BME280;55464;48.266;14.188;2023-11-22T01:41:52;97794.03;;;11.96;57.43
68476;BME280;55464;48.266;14.188;2023-11-22T01:44:17;97802.44;;;12.00;56.94
68476;BME280;55464;48.266;14.188;2023-11-22T01:46:43;97795.63;;;11.97;56.73
68476;BME280;55464;48.266;14.188;2023-11-22T01:49:10;97797.06;;;11.91;56.90
68476;BME280;55464;48.266;14.188;2023-11-22T01:51:37;97797.97;;;11.83;56.27
68476;BME280;55464;48.266;14.188;2023-11-22T01:54:04;97798.44;;;11.85;55.96
68476;BME280;55464;48.266;14.188;2023-11-22T01:56:31;97788.72;;;11.75;55.50
68476;BME280;55464;48.266;14.188;2023-11-22T01:58:57;97793.44;;;11.75;54.90
68476;BME280;55464;48.266;14.188;2023-11-22T02:01:26;97810.44;;;11.77;55.46
68476;BME280;55464;48.266;14.188;2023-11-22T02:03:52;97808.63;;;11.68;55.75
68476;BME280;55464;48.266;14.188;2023-11-22T02:06:19;97816.13;;;11.68;55.92
68476;BME280;55464;48.266;14.188;2023-11-22T02:08:46;97810.75;;;11.59;55.55
68476;BME280;55464;48.266;14.188;2023-11-22T02:11:12;97826.25;;;11.64;55.44
68476;BME280;55464;48.266;14.188;2023-11-22T02:13:38;97827.75;;;11.61;55.73
68476;BME280;55464;48.266;14.188;2023-11-22T02:16:04;97828.00;;;11.56;55.72
68476;BME280;55464;48.266;14.188;2023-11-22T02:18:29;97815.97;;;11.48;55.30
68476;BME280;55464;48.266;14.188;2023-11-22T02:20:55;97818.13;;;11.43;56.39
68476;BME280;55464;48.266;14.188;2023-11-22T02:23:21;97841.69;;;11.52;55.95
68476;BME280;55464;48.266;14.188;2023-11-22T02:25:47;97836.63;;;11.54;56.00
68476;BME280;55464;48.266;14.188;2023-11-22T02:28:13;97842.03;;;11.51;55.81
68476;BME280;55464;48.266;14.188;2023-11-22T02:30:39;97852.28;;;11.50;55.56
68476;BME280;55464;48.266;14.188;2023-11-22T02:33:04;97860.13;;;11.48;55.74
68476;BME280;55464;48.266;14.188;2023-11-22T02:35:33;97858.06;;;11.45;56.10
68476;BME280;55464;48.266;14.188;2023-11-22T02:37:59;97859.44;;;11.39;54.31
68476;BME280;55464;48.266;14.188;2023-11-22T02:40:25;97848.63;;;11.34;55.44
68476;BME280;55464;48.266;14.188;2023-11-22T02:42:51;97838.44;;;11.22;54.82
68476;BME280;55464;48.266;14.188;2023-11-22T02:45:19;97854.97;;;11.34;54.46
68476;BME280;55464;48.266;14.188;2023-11-22T02:47:48;97854.97;;;11.34;54.39
68476;BME280;55464;48.266;14.188;2023-11-22T02:50:14;97860.50;;;11.34;55.56
68476;BME280;55464;48.266;14.188;2023-11-22T02:52:40;97854.97;;;11.34;55.23
68476;BME280;55464;48.266;14.188;2023-11-22T02:55:06;97861.28;;;11.35;54.45
68476;BME280;55464;48.266;14.188;2023-11-22T02:57:32;97855.56;;;11.28;54.77
68476;BME280;55464;48.266;14.188;2023-11-22T02:59:58;97866.59;;;11.28;55.51
68476;BME280;55464;48.266;14.188;2023-11-22T03:02:23;97876.84;;;11.27;55.05
68476;BME280;55464;48.266;14.188;2023-11-22T03:04:50;97867.84;;;11.18;55.07
68476;BME280;55464;48.266;14.188;2023-11-22T03:07:15;97883.38;;;11.23;56.02
68476;BME280;55464;48.266;14.188;2023-11-22T03:09:41;97892.69;;;11.18;55.82
68476;BME280;55464;48.266;14.188;2023-11-22T03:12:08;97895.00;;;11.16;56.42
68476;BME280;55464;48.266;14.188;2023-11-22T03:14:35;97900.06;;;11.14;55.04
68476;BME280;55464;48.266;14.188;2023-11-22T03:17:00;97899.72;;;11.15;55.33
68476;BME280;55464;48.266;14.188;2023-11-22T03:19:26;97905.91;;;11.12;55.72
68476;BME280;55464;48.266;14.188;2023-11-22T03:21:51;97916.16;;;11.12;55.72
68476;BME280;55464;48.266;14.188;2023-11-22T03:24:17;97914.88;;;11.09;54.98
68476;BME280;55464;48.266;14.188;2023-11-22T03:26:42;97923.47;;;11.08;54.16
68476;BME280;55464;48.266;14.188;2023-11-22T03:29:08;97920.38;;;11.09;55.72
68476;BME280;55464;48.266;14.188;2023-11-22T03:31:33;97928.31;;;11.11;54.43
68476;BME280;55464;48.266;14.188;2023-11-22T03:33:58;97937.53;;;11.15;53.17
68476;BME280;55464;48.266;14.188;2023-11-22T03:36:24;97939.47;;;11.14;52.67
68476;BME280;55464;48.266;14.188;2023-11-22T03:38:50;97932.25;;;11.10;52.54
68476;BME280;55464;48.266;14.188;2023-11-22T03:41:16;97936.59;;;11.11;53.61
68476;BME280;55464;48.266;14.188;2023-11-22T03:43:46;97930.41;;;11.02;53.39
68476;BME280;55464;48.266;14.188;2023-11-22T03:46:12;97935.91;;;11.02;51.91
68476;BME280;55464;48.266;14.188;2023-11-22T03:48:37;97900.84;;;10.77;51.59
68476;BME280;55464;48.266;14.188;2023-11-22T03:51:03;97916.03;;;10.96;50.63
68476;BME280;55464;48.266;14.188;2023-11-22T03:53:28;97935.22;;;11.05;50.37
68476;BME280;55464;48.266;14.188;2023-11-22T03:55:54;97927.75;;;10.93;50.53
68476;BME280;55464;48.266;14.188;2023-11-22T03:58:19;97943.28;;;10.97;51.30
68476;BME280;55464;48.266;14.188;2023-11-22T04:00:45;97937.97;;;10.92;51.31
68476;BME280;55464;48.266;14.188;2023-11-22T04:03:10;97938.44;;;10.94;50.85
68476;BME280;55464;48.266;14.188;2023-11-22T04:05:36;97957.97;;;10.89;51.37
68476;BME280;55464;48.266;14.188;2023-11-22T04:08:01;97965.78;;;10.87;51.85
68476;BME280;55464;48.266;14.188;2023-11-22T04:10:27;97968.53;;;10.87;52.72
68476;BME280;55464;48.266;14.188;2023-11-22T04:12:52;97969.75;;;10.77;52.70
68476;BME280;55464;48.266;14.188;2023-11-22T04:15:18;97972.97;;;10.79;52.13
68476;BME280;55464;48.266;14.188;2023-11-22T04:17:43;97976.19;;;10.82;51.25
68476;BME280;55464;48.266;14.188;2023-11-22T04:20:09;97975.28;;;10.77;51.25
68476;BME280;55464;48.266;14.188;2023-11-22T04:22:39;97981.13;;;10.76;51.12
68476;BME280;55464;48.266;14.188;2023-11-22T04:25:05;97982.75;;;10.77;51.21
68476;BME280;55464;48.266;14.188;2023-11-22T04:27:32;97979.53;;;10.75;51.92
68476;BME280;55464;48.266;14.188;2023-11-22T04:29:57;97996.41;;;10.73;51.68
68476;BME280;55464;48.266;14.188;2023-11-22T04:32:22;97997.88;;;10.71;51.31
68476;BME280;55464;48.266;14.188;2023-11-22T04:34:48;98000.31;;;10.72;51.39
68476;BME280;55464;48.266;14.188;2023-11-22T04:37:13;98010.75;;;10.67;51.90
68476;BME280;55464;48.266;14.188;2023-11-22T04:39:39;98001.34;;;10.68;52.46
68476;BME280;55464;48.266;14.188;2023-11-22T04:42:04;98002.47;;;10.67;51.74
68476;BME280;55464;48.266;14.188;2023-11-22T04:44:31;98007.53;;;10.65;50.44
68476;BME280;55464;48.266;14.188;2023-11-22T04:46:57;98009.13;;;10.66;51.36
68476;BME280;55464;48.266;14.188;2023-11-22T04:49:25;97996.25;;;10.57;51.24
68476;BME280;55464;48.266;14.188;2023-11-22T04:51:50;98031.66;;;10.68;52.02
68476;BME280;55464;48.266;14.188;2023-11-22T04:54:16;98033.00;;;10.62;50.88
68476;BME280;55464;48.266;14.188;2023-11-22T04:56:41;98017.22;;;10.50;51.10
68476;BME280;55464;48.266;14.188;2023-11-22T04:59:07;98035.28;;;10.59;52.18
68476;BME280;55464;48.266;14.188;2023-11-22T05:01:33;98036.88;;;10.60;51.39
68476;BME280;55464;48.266;14.188;2023-11-22T05:03:58;98055.94;;;10.53;51.85
68476;BME280;55464;48.266;14.188;2023-11-22T05:06:24;98052.44;;;10.44;51.55
68476;BME280;55464;48.266;14.188;2023-11-22T05:08:51;98057.41;;;10.51;51.28
68476;BME280;55464;48.266;14.188;2023-11-22T05:11:17;98052.09;;;10.25;50.31
68476;BME280;55464;48.266;14.188;2023-11-22T05:13:42;98062.28;;;10.33;50.67
68476;BME280;55464;48.266;14.188;2023-11-22T05:16:10;98064.38;;;10.27;51.51
68476;BME280;55464;48.266;14.188;2023-11-22T05:18:35;98060.03;;;10.26;52.71
68476;BME280;55464;48.266;14.188;2023-11-22T05:21:04;98074.13;;;10.25;52.02
68476;BME280;55464;48.266;14.188;2023-11-22T05:23:30;98055.91;;;10.11;52.54
68476;BME280;55464;48.266;14.188;2023-11-22T05:25:56;98078.16;;;10.27;53.01
68476;BME280;55464;48.266;14.188;2023-11-22T05:28:22;98079.13;;;10.31;53.03
68476;BME280;55464;48.266;14.188;2023-11-22T05:30:47;98069.41;;;10.25;52.43
68476;BME280;55464;48.266;14.188;2023-11-22T05:33:13;98084.78;;;10.35;52.10
68476;BME280;55464;48.266;14.188;2023-11-22T05:35:38;98090.78;;;10.28;52.47
68476;BME280;55464;48.266;14.188;2023-11-22T05:38:03;98094.22;;;10.25;52.68
68476;BME280;55464;48.266;14.188;2023-11-22T05:40:29;98095.09;;;10.17;52.01
68476;BME280;55464;48.266;14.188;2023-11-22T05:42:54;98084.00;;;9.75;52.56
68476;BME280;55464;48.266;14.188;2023-11-22T05:45:20;98098.75;;;9.70;52.20
68476;BME280;55464;48.266;14.188;2023-11-22T05:47:45;98103.19;;;9.54;52.00
68476;BME280;55464;48.266;14.188;2023-11-22T05:50:11;98091.47;;;9.18;52.88
68476;BME280;55464;48.266;14.188;2023-11-22T05:52:37;98098.56;;;9.37;52.75
68476;BME280;55464;48.266;14.188;2023-11-22T05:55:02;98091.78;;;9.25;53.33
68476;BME280;55464;48.266;14.188;2023-11-22T05:57:29;98098.66;;;9.49;53.39
68476;BME280;55464;48.266;14.188;2023-11-22T05:59:56;98121.03;;;9.39;52.89
68476;BME280;55464;48.266;14.188;2023-11-22T06:02:22;98119.38;;;9.46;52.38
68476;BME280;55464;48.266;14.188;2023-11-22T06:04:47;98122.13;;;9.46;52.74
68476;BME280;55464;48.266;14.188;2023-11-22T06:07:13;98137.81;;;9.55;52.78
68476;BME280;55464;48.266;14.188;2023-11-22T06:09:38;98146.38;;;9.62;52.61
68476;BME280;55464;48.266;14.188;2023-11-22T06:12:04;98131.66;;;9.58;53.24
68476;BME280;55464;48.266;14.188;2023-11-22T06:14:30;98157.78;;;9.81;51.86
68476;BME280;55464;48.266;14.188;2023-11-22T06:16:55;98164.25;;;9.86;51.74
68476;BME280;55464;48.266;14.188;2023-11-22T06:19:21;98161.97;;;9.88;51.09
68476;BME280;55464;48.266;14.188;2023-11-22T06:21:46;98173.63;;;9.93;51.32
68476;BME280;55464;48.266;14.188;2023-11-22T06:24:11;98165.22;;;9.90;51.98
68476;BME280;55464;48.266;14.188;2023-11-22T06:26:42;98174.56;;;9.97;51.98
68476;BME280;55464;48.266;14.188;2023-11-22T06:29:08;98191.22;;;10.01;51.59
68476;BME280;55464;48.266;14.188;2023-11-22T06:31:33;98191.72;;;10.03;51.14
68476;BME280;55464;48.266;14.188;2023-11-22T06:33:59;98196.41;;;10.02;50.36
68476;BME280;55464;48.266;14.188;2023-11-22T06:36:26;98202.22;;;10.01;50.21
68476;BME280;55464;48.266;14.188;2023-11-22T06:38:53;98191.47;;;9.87;50.34
68476;BME280;55464;48.266;14.188;2023-11-22T06:41:19;98203.09;;;9.93;50.11
68476;BME280;55464;48.266;14.188;2023-11-22T06:43:47;98182.88;;;9.80;50.26
68476;BME280;55464;48.266;14.188;2023-11-22T06:46:12;98210.34;;;9.97;51.08
68476;BME280;55464;48.266;14.188;2023-11-22T06:48:38;98222.19;;;9.98;51.59
68476;BME280;55464;48.266;14.188;2023-11-22T06:51:03;98208.47;;;9.89;51.00
68476;BME280;55464;48.266;14.188;2023-11-22T06:53:29;98226.88;;;9.97;51.34
68476;BME280;55464;48.266;14.188;2023-11-22T06:55:54;98223.81;;;9.90;51.42
68476;BME280;55464;48.266;14.188;2023-11-22T06:58:19;98237.59;;;9.90;50.99
68476;BME280;55464;48.266;14.188;2023-11-22T07:00:45;98246.00;;;9.94;51.90
68476;BME280;55464;48.266;14.188;2023-11-22T07:03:10;98245.22;;;9.84;50.55
68476;BME280;55464;48.266;14.188;2023-11-22T07:05:36;98241.06;;;9.78;50.39
68476;BME280;55464;48.266;14.188;2023-11-22T07:08:02;98250.25;;;9.82;51.72
68476;BME280;55464;48.266;14.188;2023-11-22T07:10:28;98262.91;;;9.83;51.80
68476;BME280;55464;48.266;14.188;2023-11-22T07:12:54;98265.16;;;9.81;52.55
68476;BME280;55464;48.266;14.188;2023-11-22T07:15:19;98265.16;;;9.81;53.23
68476;BME280;55464;48.266;14.188;2023-11-22T07:17:45;98264.50;;;9.76;54.09
68476;BME280;55464;48.266;14.188;2023-11-22T07:20:10;98275.34;;;9.81;54.36
68476;BME280;55464;48.266;14.188;2023-11-22T07:22:42;98280.56;;;9.74;54.58
68476;BME280;55464;48.266;14.188;2023-11-22T07:25:08;98286.72;;;9.71;54.04
68476;BME280;55464;48.266;14.188;2023-11-22T07:27:44;98294.00;;;9.67;55.04
68476;BME280;55464;48.266;14.188;2023-11-22T07:30:11;98305.03;;;9.58;54.32
68476;BME280;55464;48.266;14.188;2023-11-22T07:32:38;98304.72;;;9.59;54.66
68476;BME280;55464;48.266;14.188;2023-11-22T07:35:05;98307.31;;;9.56;54.68
68476;BME280;55464;48.266;14.188;2023-11-22T07:37:31;98314.56;;;9.52;55.01
68476;BME280;55464;48.266;14.188;2023-11-22T07:39:56;98311.50;;;9.36;54.96
68476;BME280;55464;48.266;14.188;2023-11-22T07:42:22;98310.22;;;9.42;55.32
68476;BME280;55464;48.266;14.188;2023-11-22T07:44:48;98320.75;;;9.49;55.22
68476;BME280;55464;48.266;14.188;2023-11-22T07:47:15;98317.63;;;9.50;54.95
68476;BME280;55464;48.266;14.188;2023-11-22T07:49:41;98316.03;;;9.58;55.66
68476;BME280;55464;48.266;14.188;2023-11-22T07:52:07;98320.38;;;9.59;55.82
68476;BME280;55464;48.266;14.188;2023-11-22T07:54:32;98326.06;;;9.62;55.78
68476;BME280;55464;48.266;14.188;2023-11-22T07:56:58;98329.31;;;9.64;56.08
68476;BME280;55464;48.266;14.188;2023-11-22T07:59:23;98329.78;;;9.67;55.74
68476;BME280;55464;48.266;14.188;2023-11-22T08:01:48;98335.13;;;9.63;55.27
68476;BME280;55464;48.266;14.188;2023-11-22T08:04:14;98324.94;;;9.55;54.99
68476;BME280;55464;48.266;14.188;2023-11-22T08:06:41;98316.84;;;9.50;54.23
68476;BME280;55464;48.266;14.188;2023-11-22T08:09:07;98343.22;;;9.59;53.46
68476;BME280;55464;48.266;14.188;2023-11-22T08:11:34;98346.47;;;9.53;53.04
68476;BME280;55464;48.266;14.188;2023-11-22T08:14:01;98360.22;;;9.53;53.86
68476;BME280;55464;48.266;14.188;2023-11-22T08:16:26;98346.94;;;9.46;53.40
68476;BME280;55464;48.266;14.188;2023-11-22T08:18:52;98359.91;;;9.54;53.48
68476;BME280;55464;48.266;14.188;2023-11-22T08:21:17;98351.66;;;9.45;53.37
68476;BME280;55464;48.266;14.188;2023-11-22T08:23:43;98374.16;;;9.56;53.23
68476;BME280;55464;48.266;14.188;2023-11-22T08:26:10;98376.56;;;9.58;52.40
68476;BME280;55464;48.266;14.188;2023-11-22T08:28:37;98357.94;;;9.55;52.63
68476;BME280;55464;48.266;14.188;2023-11-22T08:31:03;98374.16;;;9.65;52.04
68476;BME280;55464;48.266;14.188;2023-11-22T08:33:35;98372.34;;;9.69;50.91
68476;BME280;55464;48.266;14.188;2023-11-22T08:36:01;98377.88;;;9.69;49.93
68476;BME280;55464;48.266;14.188;2023-11-22T08:38:27;98379.66;;;9.65;50.48
68476;BME280;55464;48.266;14.188;2023-11-22T08:40:53;98378.69;;;9.70;49.61
68476;BME280;55464;48.266;14.188;2023-11-22T08:43:20;98366.69;;;9.57;49.90
68476;BME280;55464;48.266;14.188;2023-11-22T08:45:48;98382.09;;;9.67;50.60
68476;BME280;55464;48.266;14.188;2023-11-22T08:48:14;98392.47;;;9.70;50.41
68476;BME280;55464;48.266;14.188;2023-11-22T08:50:41;98378.53;;;9.66;49.75
68476;BME280;55464;48.266;14.188;2023-11-22T08:53:06;98385.31;;;9.69;49.89
68476;BME280;55464;48.266;14.188;2023-11-22T08:55:32;98379.97;;;9.55;49.62
68476;BME280;55464;48.266;14.188;2023-11-22T08:57:59;98407.19;;;9.65;50.17
68476;BME280;55464;48.266;14.188;2023-11-22T09:00:24;98397.78;;;9.57;49.22
68476;BME280;55464;48.266;14.188;2023-11-22T09:02:53;98406.34;;;9.47;49.12
68476;BME280;55464;48.266;14.188;2023-11-22T09:05:20;98422.03;;;9.55;49.41
68476;BME280;55464;48.266;14.188;2023-11-22T09:07:47;98431.78;;;9.53;49.04
68476;BME280;55464;48.266;14.188;2023-11-22T09:10:12;98450.25;;;9.61;48.86
68476;BME280;55464;48.266;14.188;2023-11-22T09:12:41;98464.16;;;9.56;49.08
68476;BME280;55464;48.266;14.188;2023-11-22T09:15:08;98466.44;;;9.54;49.04
68476;BME280;55464;48.266;14.188;2023-11-22T09:17:37;98471.94;;;9.54;49.33
68476;BME280;55464;48.266;14.188;2023-11-22T09:20:15;98451.16;;;9.39;49.76
68476;BME280;55464;48.266;14.188;2023-11-22T09:22:48;98476.44;;;9.50;49.29
68476;BME280;55464;48.266;14.188;2023-11-22T09:25:20;98483.41;;;9.47;49.33
68476;BME280;55464;48.266;14.188;2023-11-22T09:27:51;98480.81;;;9.51;49.14
68476;BME280;55464;48.266;14.188;2023-11-22T09:30:19;98484.38;;;9.51;49.74
68476;BME280;55464;48.266;14.188;2023-11-22T09:33:08;98487.91;;;9.43;49.77
68476;BME280;55464;48.266;14.188;2023-11-22T09:35:34;98485.66;;;9.45;49.35
68476;BME280;55464;48.266;14.188;2023-11-22T09:38:03;98466.72;;;9.43;48.95
68476;BME280;55464;48.266;14.188;2023-11-22T09:40:29;98454.72;;;9.39;49.04
68476;BME280;55464;48.266;14.188;2023-11-22T09:42:58;98446.63;;;9.43;49.00
68476;BME280;55464;48.266;14.188;2023-11-22T09:45:23;98448.44;;;9.48;48.94
68476;BME280;55464;48.266;14.188;2023-11-22T09:47:50;98451.81;;;9.44;50.07
68476;BME280;55464;48.266;14.188;2023-11-22T09:53:57;98488.75;;;9.52;49.54
68476;BME280;55464;48.266;14.188;2023-11-22T09:56:30;98489.84;;;9.42;48.67
68476;BME280;55464;48.266;14.188;2023-11-22T09:58:58;98491.31;;;9.40;49.03
68476;BME280;55464;48.266;14.188;2023-11-22T10:01:26;98497.78;;;9.44;48.79
68476;BME280;55464;48.266;14.188;2023-11-22T10:03:54;98485.50;;;9.41;48.18
68476;BME280;55464;48.266;14.188;2023-11-22T10:06:19;98493.38;;;9.34;47.91
68476;BME280;55464;48.266;14.188;2023-11-22T10:08:46;98496.97;;;9.35;48.43
68476;BME280;55464;48.266;14.188;2023-11-22T10:11:15;98506.03;;;9.35;48.78
68476;BME280;55464;48.266;14.188;2023-11-22T10:13:51;98506.81;;;9.36;48.27
68476;BME280;55464;48.266;14.188;2023-11-22T10:16:18;98500.66;;;9.30;48.43
68476;BME280;55464;48.266;14.188;2023-11-22T10:18:46;98478.63;;;9.21;48.50
68476;BME280;55464;48.266;14.188;2023-11-22T10:21:23;98501.47;;;9.31;48.13
68476;BME280;55464;48.266;14.188;2023-11-22T10:23:56;98494.84;;;9.32;48.32
68476;BME280;55464;48.266;14.188;2023-11-22T10:26:22;98503.41;;;9.30;48.22
68476;BME280;55464;48.266;14.188;2023-11-22T10:28:51;98503.91;;;9.32;48.25
68476;BME280;55464;48.266;14.188;2023-11-22T10:31:17;98503.09;;;9.32;48.80
68476;BME280;55464;48.266;14.188;2023-11-22T10:33:43;98521.25;;;9.33;48.50
68476;BME280;55464;48.266;14.188;2023-11-22T10:36:09;98520.72;;;9.31;48.08
68476;BME280;55464;48.266;14.188;2023-11-22T10:38:35;98490.28;;;9.27;48.36
68476;BME280;55464;48.266;14.188;2023-11-22T10:41:10;98507.81;;;9.40;48.21
68476;BME280;55464;48.266;14.188;2023-11-22T10:43:36;98516.09;;;9.40;48.94
68476;BME280;55464;48.266;14.188;2023-11-22T10:46:04;98515.09;;;9.44;49.60
68476;BME280;55464;48.266;14.188;2023-11-22T10:48:31;98514.78;;;9.46;48.94
68476;BME280;55464;48.266;14.188;2023-11-22T10:51:00;98508.16;;;9.47;49.22
68476;BME280;55464;48.266;14.188;2023-11-22T10:53:36;98508.81;;;9.44;49.06
68476;BME280;55464;48.266;14.188;2023-11-22T10:56:07;98528.09;;;9.53;49.02
68476;BME280;55464;48.266;14.188;2023-11-22T10:58:50;98531.16;;;9.51;48.58
68476;BME280;55464;48.266;14.188;2023-11-22T11:01:20;98520.59;;;9.44;48.51
68476;BME280;55464;48.266;14.188;2023-11-22T11:03:57;98523.34;;;9.44;48.11
68476;BME280;55464;48.266;14.188;2023-11-22T11:06:26;98529.88;;;9.49;48.59
68476;BME280;55464;48.266;14.188;2023-11-22T11:09:00;98547.19;;;9.49;48.56
68476;BME280;55464;48.266;14.188;2023-11-22T11:11:27;98555.25;;;9.45;48.35
68476;BME280;55464;48.266;14.188;2023-11-22T11:13:53;98546.66;;;9.38;49.30
68476;BME280;55464;48.266;14.188;2023-11-22T11:16:20;98559.59;;;9.38;49.54
68476;BME280;55464;48.266;14.188;2023-11-22T11:18:47;98564.91;;;9.34;48.90
68476;BME280;55464;48.266;14.188;2023-11-22T11:21:15;98561.03;;;9.35;49.44
68476;BME280;55464;48.266;14.188;2023-11-22T11:23:40;98577.41;;;9.40;49.25
68476;BME280;55464;48.266;14.188;2023-11-22T11:28:46;98579.34;;;9.40;49.09
68476;BME280;55464;48.266;14.188;2023-11-22T11:31:15;98560.38;;;9.30;48.23
68476;BME280;55464;48.266;14.188;2023-11-22T11:34:01;98580.47;;;9.39;49.05
68476;BME280;55464;48.266;14.188;2023-11-22T11:36:31;98585.66;;;9.40;48.24
68476;BME280;55464;48.266;14.188;2023-11-22T11:39:02;98575.94;;;9.43;47.99
68476;BME280;55464;48.266;14.188;2023-11-22T11:41:32;98573.19;;;9.43;47.48
68476;BME280;55464;48.266;14.188;2023-11-22T11:44:01;98575.94;;;9.43;46.86
68476;BME280;55464;48.266;14.188;2023-11-22T11:46:29;98574.97;;;9.39;46.72
68476;BME280;55464;48.266;14.188;2023-11-22T11:48:55;98548.66;;;9.15;47.04
68476;BME280;55464;48.266;14.188;2023-11-22T11:51:28;98569.13;;;9.32;48.45
68476;BME280;55464;48.266;14.188;2023-11-22T11:53:55;98597.97;;;9.43;47.67
68476;BME280;55464;48.266;14.188;2023-11-22T11:56:21;98591.66;;;9.42;47.80
68476;BME280;55464;48.266;14.188;2023-11-22T11:58:48;98586.06;;;9.25;46.72
68476;BME280;55464;48.266;14.188;2023-11-22T12:01:18;98600.63;;;9.25;46.91
68476;BME280;55464;48.266;14.188;2023-11-22T12:03:47;98591.94;;;9.32;46.74
68476;BME280;55464;48.266;14.188;2023-11-22T12:06:18;98589.34;;;9.36;47.68
68476;BME280;55464;48.266;14.188;2023-11-22T12:08:45;98584.56;;;9.41;49.04
68476;BME280;55464;48.266;14.188;2023-11-22T12:11:11;98602.53;;;9.48;48.38
68476;BME280;55464;48.266;14.188;2023-11-22T12:13:37;98604.81;;;9.54;47.89
68476;BME280;55464;48.266;14.188;2023-11-22T12:16:14;98601.28;;;9.54;47.13
68476;BME280;55464;48.266;14.188;2023-11-22T12:18:47;98585.50;;;9.37;46.88
68476;BME280;55464;48.266;14.188;2023-11-22T12:21:17;98591.53;;;9.48;46.53
68476;BME280;55464;48.266;14.188;2023-11-22T12:23:44;98588.91;;;9.42;47.04
68476;BME280;55464;48.266;14.188;2023-11-22T12:26:19;98589.22;;;9.41;47.18
68476;BME280;55464;48.266;14.188;2023-11-22T12:28:46;98591.84;;;9.46;46.93
68476;BME280;55464;48.266;14.188;2023-11-22T12:31:14;98573.03;;;9.39;47.02
68476;BME280;55464;48.266;14.188;2023-11-22T12:33:43;98595.75;;;9.54;46.63
68476;BME280;55464;48.266;14.188;2023-11-22T12:36:10;98591.56;;;9.56;47.62
68476;BME280;55464;48.266;14.188;2023-11-22T12:38:40;98587.84;;;9.61;47.37
68476;BME280;55464;48.266;14.188;2023-11-22T12:41:06;98570.03;;;9.58;46.97
68476;BME280;55464;48.266;14.188;2023-11-22T12:43:35;98568.25;;;9.54;46.89
68476;BME280;55464;48.266;14.188;2023-11-22T12:46:05;98571.00;;;9.54;48.44
68476;BME280;55464;48.266;14.188;2023-11-22T12:48:39;98562.56;;;9.59;47.93
68476;BME280;55464;48.266;14.188;2023-11-22T12:51:15;98562.94;;;9.66;47.29
68476;BME280;55464;48.266;14.188;2023-11-22T12:53:41;98564.41;;;9.72;47.81
68476;BME280;55464;48.266;14.188;2023-11-22T12:56:06;98564.56;;;9.76;48.47
68476;BME280;55464;48.266;14.188;2023-11-22T12:58:32;98569.75;;;9.77;47.15
68476;BME280;55464;48.266;14.188;2023-11-22T13:00:58;98562.81;;;9.71;48.25